地図

経路データ

SID SEASON NUMBER BASIN SUBBASIN NAME ISO_TIME NATURE LAT LON WMO_WIND WMO_PRES WMO_AGENCY TRACK_TYPE DIST2LAND LANDFALL IFLAG USA_AGENCY USA_ATCF_ID USA_LAT USA_LON USA_RECORD USA_STATUS USA_WIND USA_PRES USA_SSHS USA_R34_NE USA_R34_SE USA_R34_SW USA_R34_NW USA_R50_NE USA_R50_SE USA_R50_SW USA_R50_NW USA_R64_NE USA_R64_SE USA_R64_SW USA_R64_NW USA_POCI USA_ROCI USA_RMW USA_EYE TOKYO_LAT TOKYO_LON TOKYO_GRADE TOKYO_WIND TOKYO_PRES TOKYO_R50_DIR TOKYO_R50_LONG TOKYO_R50_SHORT TOKYO_R30_DIR TOKYO_R30_LONG TOKYO_R30_SHORT TOKYO_LAND CMA_LAT CMA_LON CMA_CAT CMA_WIND CMA_PRES HKO_LAT HKO_LON HKO_CAT HKO_WIND HKO_PRES NEWDELHI_LAT NEWDELHI_LON NEWDELHI_GRADE NEWDELHI_WIND NEWDELHI_PRES NEWDELHI_CI NEWDELHI_DP NEWDELHI_POCI REUNION_LAT REUNION_LON REUNION_TYPE REUNION_WIND REUNION_PRES REUNION_TNUM REUNION_CI REUNION_RMW REUNION_R34_NE REUNION_R34_SE REUNION_R34_SW REUNION_R34_NW REUNION_R50_NE REUNION_R50_SE REUNION_R50_SW REUNION_R50_NW REUNION_R64_NE REUNION_R64_SE REUNION_R64_SW REUNION_R64_NW BOM_LAT BOM_LON BOM_TYPE BOM_WIND BOM_PRES BOM_TNUM BOM_CI BOM_RMW BOM_R34_NE BOM_R34_SE BOM_R34_SW BOM_R34_NW BOM_R50_NE BOM_R50_SE BOM_R50_SW BOM_R50_NW BOM_R64_NE BOM_R64_SE BOM_R64_SW BOM_R64_NW BOM_ROCI BOM_POCI BOM_EYE BOM_POS_METHOD BOM_PRES_METHOD NADI_LAT NADI_LON NADI_CAT NADI_WIND NADI_PRES WELLINGTON_LAT WELLINGTON_LON WELLINGTON_WIND WELLINGTON_PRES DS824_LAT DS824_LON DS824_STAGE DS824_WIND DS824_PRES TD9636_LAT TD9636_LON TD9636_STAGE TD9636_WIND TD9636_PRES TD9635_LAT TD9635_LON TD9635_WIND TD9635_PRES TD9635_ROCI NEUMANN_LAT NEUMANN_LON NEUMANN_CLASS NEUMANN_WIND NEUMANN_PRES MLC_LAT MLC_LON MLC_CLASS MLC_WIND MLC_PRES USA_GUST BOM_GUST BOM_GUST_PER REUNION_GUST REUNION_GUST_PER USA_SEAHGT USA_SEARAD_NE USA_SEARAD_SE USA_SEARAD_SW USA_SEARAD_NW STORM_SPEED STORM_DIR
1946340S06071 1947 75 SI MM NOT_NAMED 1946-12-05 18:00:00 TS -6.30000 70.5000 main 1756 1756 O________OO___ jtwc_sh SH021947 -6.30000 70.5000 -1 -6.30000 70.5000 TC -6.30000 70.5000 1 3 251
1946340S06071 1947 75 SI MM NOT_NAMED 1946-12-05 21:00:00 TS -6.35053 70.3549 main 1772 1772 P________PP___ SH021947 -6.35001 70.3550 -1 -6.35001 70.3550 TC -6.35155 70.3547 1 3 251
1946340S06071 1947 75 SI MM NOT_NAMED 1946-12-06 00:00:00 TS -6.40083 70.1992 main 1786 1786 O________OP___ jtwc_sh SH021947 -6.40000 70.2000 -1 -6.40000 70.2000 TC -6.40248 70.1975 1 3 253
1946340S06071 1947 75 SI MM NOT_NAMED 1946-12-06 03:00:00 TS -6.45071 70.0205 main 1808 1808 P________PP___ SH021947 -6.44998 70.0225 -1 -6.44998 70.0225 TC -6.45217 70.0166 1 4 256
1946340S06071 1947 75 SI MM NOT_NAMED 1946-12-06 06:00:00 TS -6.50000 69.8000 main 1822 1822 O________OO___ jtwc_sh SH021947 -6.50000 69.8000 -1 -6.50000 69.8000 TC 25 -6.50000 69.8000 1 5 259
1946340S06071 1947 75 SI MM NOT_NAMED 1946-12-06 09:00:00 TS -6.54866 69.5233 main 1844 1844 P________PP___ SH021947 -6.55001 69.5150 -1 -6.55001 69.5150 TC 25 -6.54595 69.5400 1 6 260
1946340S06071 1947 75 SI MM NOT_NAMED 1946-12-06 12:00:00 TS -6.59751 69.2150 main 1874 1874 O________OP___ jtwc_sh SH021947 -6.60000 69.2000 -1 -6.60000 69.2000 TC 25 -6.59251 69.2449 1 6 261
1946340S06071 1947 75 SI MM NOT_NAMED 1946-12-06 15:00:00 TS -6.64759 68.9091 main 1892 1892 P________PP___ SH021947 -6.64998 68.9000 -1 -6.64998 68.9000 TC 25 -6.64281 68.9275 1 6 260
1946340S06071 1947 75 SI MM NOT_NAMED 1946-12-06 18:00:00 TS -6.70000 68.6000 main 1906 1886 O________OO___ jtwc_sh SH021947 -6.70000 68.6000 -1 -6.70000 68.6000 TC 25 -6.70000 68.6000 1 6 260
1946340S06071 1947 75 SI MM NOT_NAMED 1946-12-06 21:00:00 TS -6.74949 68.3098 main 1886 1858 P________PP___ SH021947 -6.74247 68.3075 -1 -6.74247 68.3075 TC 25 -6.76353 68.3146 1 6 259
1946340S06071 1947 75 SI MM NOT_NAMED 1946-12-07 00:00:00 TS -6.81155 68.0058 main 1858 1829 O________OP___ jtwc_sh SH021947 -6.80000 68.0000 -1 -6.80000 68.0000 TC 25 -6.83465 68.0173 1 6 256
1946340S06071 1947 75 SI MM NOT_NAMED 1946-12-07 03:00:00 TS -6.89944 67.6821 main 1829 1795 P________PP___ SH021947 -6.89243 67.6800 -1 -6.89243 67.6800 TC 25 -6.91346 67.6864 1 7 255
1946340S06071 1947 75 SI MM NOT_NAMED 1946-12-07 06:00:00 TS -7.00000 67.3000 main 1795 1761 O________OO___ jtwc_sh SH021947 -7.00000 67.3000 -1 -7.00000 67.3000 TC 25 -7.00000 67.3000 1 9 257
1946340S06071 1947 75 SI MM NOT_NAMED 1946-12-07 09:00:00 TS -7.09899 66.8295 main 1755 1716 P________PP___ SH021947 -7.09999 66.8300 -1 -7.09999 66.8300 TC 25 -7.09700 66.8285 1 10 259
1946340S06071 1947 75 SI MM NOT_NAMED 1946-12-07 12:00:00 TS -7.20006 66.3008 main 1716 1678 O________OP___ jtwc_sh SH021947 -7.20000 66.3000 -1 -7.20000 66.3000 TC 25 -7.20017 66.3025 1 11 259
1946340S06071 1947 75 SI MM NOT_NAMED 1946-12-07 15:00:00 TS -7.30606 65.7501 main 1678 1635 P________PP___ SH021947 -7.30749 65.7500 -1 -7.30749 65.7500 TC 25 -7.30322 65.7503 1 11 260
1946340S06071 1947 75 SI MM NOT_NAMED 1946-12-07 18:00:00 TS -7.40000 65.2000 main 1635 1599 O________OO___ jtwc_sh SH021947 -7.40000 65.2000 -1 -7.40000 65.2000 TC 25 -7.40000 65.2000 1 10 262
1946340S06071 1947 75 SI MM NOT_NAMED 1946-12-07 21:00:00 TS -7.45639 64.7087 main 1599 1579 P________PP___ SH021947 -7.44992 64.6924 -1 -7.44992 64.6924 TC 25 -7.46934 64.7411 1 10 263
1946340S06071 1947 75 SI MM NOT_NAMED 1946-12-08 00:00:00 TS -7.51133 64.2273 main 1574 1546 O________OP___ jtwc_sh SH021947 -7.50000 64.2000 -1 -7.50000 64.2000 TC 25 -7.53398 64.2819 1 10 262
1946340S06071 1947 75 SI MM NOT_NAMED 1946-12-08 03:00:00 TS -7.59209 63.7522 main 1546 1509 P________PP___ SH021947 -7.58479 63.7374 -1 -7.58479 63.7374 TC 25 -7.60668 63.7817 1 10 260
1946340S06071 1947 75 SI MM NOT_NAMED 1946-12-08 06:00:00 TS -7.70000 63.2000 main 1509 1470 O________OO___ jtwc_sh SH021947 -7.70000 63.2000 -1 -7.70000 63.2000 TC 25 -7.70000 63.2000 1 13 259
1946340S06071 1947 75 SI MM NOT_NAMED 1946-12-08 09:00:00 TS -7.83658 62.4917 main 1470 1367 P________PP___ SH021947 -7.84246 62.5025 -1 -7.84246 62.5025 TC 25 -7.82482 62.4701 1 19 254
1946340S06071 1947 75 SI MM NOT_NAMED 1946-12-08 12:00:00 TS -8.22942 61.3877 reunion main 1367 1263 O____O___OP___ jtwc_sh SH021947 -8.00000 61.7000 -1 -11.1000 57.8000 99 9.90000 -8.00000 61.7000 TC 25 -7.97063 61.6600 1 22 251
1946340S06071 1947 75 SI MM NOT_NAMED 1946-12-08 15:00:00 TS -8.56112 60.4197 main 1248 1159 P____P___PP___ SH021947 -8.14255 60.8424 -1 -11.0956 57.9283 99 -8.14255 60.8424 TC 25 -8.13102 60.8199 1 19 250
1946340S06071 1947 75 SI MM NOT_NAMED 1946-12-08 18:00:00 TS -8.85832 59.6074 main 1154 1085 O____P___OO___ jtwc_sh SH021947 -8.30000 60.0000 -1 -11.0916 58.0372 99 -8.30000 60.0000 TC 25 -8.30000 60.0000 1 15 248
1946340S06071 1947 75 SI MM NOT_NAMED 1946-12-08 21:00:00 TS -9.13978 58.9844 main 1085 1026 P____P___PP___ SH021947 -8.49975 59.2775 -1 -11.0885 58.1074 99 -8.49975 59.2775 TC 25 -8.47118 59.2752 1 12 249
1946340S06071 1947 75 SI MM NOT_NAMED 1946-12-09 00:00:00 TS -9.28392 58.4742 main 1026 971 O____P___OP___ jtwc_sh SH021947 -8.70000 58.6000 -1 -11.0866 58.1195 99 -8.70000 58.6000 TC 25 -8.64907 58.5774 1 11 256
1946340S06071 1947 75 SI MM NOT_NAMED 1946-12-09 03:00:00 TS -9.40719 57.9362 main 961 907 P____P___PP___ SH021947 -8.85737 57.8999 -1 -11.0866 58.0542 99 -8.85737 57.8999 TC 25 -8.82745 57.8908 1 11 258
1946340S06071 1947 75 SI MM NOT_NAMED 1946-12-09 06:00:00 TS -9.52215 57.3730 main 907 843 O____P___OO___ jtwc_sh SH021947 -9.00000 57.2000 -1 -11.0886 57.8922 99 -9.00000 57.2000 TC 25 -9.00000 57.2000 1 12 259
1946340S06071 1947 75 SI MM NOT_NAMED 1946-12-09 09:00:00 TS -9.63736 56.7797 main 843 780 P____P___PP___ SH021947 -9.14982 56.5074 -1 -11.0931 57.6139 99 -9.14982 56.5074 TC 25 -9.15671 56.4900 1 12 259
1946340S06071 1947 75 SI MM NOT_NAMED 1946-12-09 12:00:00 TS -9.75171 56.1430 reunion main 765 702 O____O___OP___ jtwc_sh SH021947 -9.30000 55.8000 -1 -11.1000 57.2000 99 9.90000 -9.30000 55.8000 TC 25 -9.30682 55.7721 1 13 260
1946340S06071 1947 75 SI MM NOT_NAMED 1946-12-09 15:00:00 TS -9.86559 55.4529 main 702 631 P____P___PP___ SH021947 -9.44984 55.0649 -1 -11.1091 56.6387 99 -9.44984 55.0649 TC 25 -9.45352 55.0431 1 14 261
1946340S06071 1947 75 SI MM NOT_NAMED 1946-12-09 18:00:00 TS -9.97998 54.7124 main 621 552 O____P___OO___ jtwc_sh SH021947 -9.60000 54.3000 -1 -11.1199 55.9498 99 -9.60000 54.3000 TC 25 -9.60000 54.3000 1 15 261
1946340S06071 1947 75 SI MM NOT_NAMED 1946-12-09 21:00:00 TS -10.0975 53.9120 main 543 461 P____P___PP___ SH021947 -9.74992 53.4999 -1 -11.1317 55.1611 99 -9.74992 53.4999 TC 25 -9.75849 53.4869 1 16 262
1946340S06071 1947 75 SI MM NOT_NAMED 1946-12-10 00:00:00 TS -10.2149 53.0921 main 461 381 O____P___OP___ jtwc_sh SH021947 -9.90000 52.7000 -1 -11.1440 54.3007 99 -9.90000 52.7000 TC 25 -9.91563 52.6679 1 16 262
1946340S06071 1947 75 SI MM NOT_NAMED 1946-12-10 03:00:00 TS -10.3342 52.2704 main 381 313 P____P___PP___ SH021947 -10.0575 51.8976 -1 -11.1567 53.3964 99 -10.0575 51.8976 TC 25 -10.0649 51.8899 1 16 262
1946340S06071 1947 75 SI MM NOT_NAMED 1946-12-10 06:00:00 TS -10.4425 51.5191 main 305 250 O____P___OO___ jtwc_sh SH021947 -10.2000 51.2000 -1 -11.1699 52.4763 99 -10.2000 51.2000 TC 25 -10.2000 51.2000 1 14 262
1946340S06071 1947 75 SI MM NOT_NAMED 1946-12-10 09:00:00 TS -10.5290 50.9096 main 250 206 P____P___PP___ SH021947 -10.3072 50.7049 -1 -11.1841 51.5683 99 -10.3072 50.7049 TC 25 -10.3174 50.6604 1 11 262
1946340S06071 1947 75 SI MM NOT_NAMED 1946-12-10 12:00:00 TS -10.6053 50.3774 reunion main 206 169 O____O___OP___ jtwc_sh SH021947 -10.4000 50.3000 -1 -11.2000 50.7000 99 9.90000 -10.4000 50.3000 TC 25 -10.4212 50.2098 1 10 261
1946340S06071 1947 75 SI MM NOT_NAMED 1946-12-10 15:00:00 TS -10.6832 49.8654 main 169 157 P____P___PP___ SH021947 -10.5074 49.8500 -1 -11.2036 49.9572 99 -10.5074 49.8500 TC 25 -10.5144 49.8042 1 10 262
1946340S06071 1947 75 SI MM NOT_NAMED 1946-12-10 18:00:00 TS -10.7520 49.3591 main 146 145 O____P___OO___ jtwc_sh SH021947 -10.6000 49.4000 -1 -11.2080 49.2365 99 -10.6000 49.4000 TC 25 -10.6000 49.4000 1 10 263
1946340S06071 1947 75 SI MM NOT_NAMED 1946-12-10 21:00:00 TS -10.7984 48.8493 main 151 151 P____P___PP___ SH021947 -10.6499 48.9574 -1 -11.2159 48.5383 99 -10.6499 48.9574 TC 25 -10.6778 48.9442 1 10 265
1946340S06071 1947 75 SI MM NOT_NAMED 1946-12-11 00:00:00 TS -10.8449 48.3357 main 175 166 O____P___OP___ jtwc_sh SH021947 -10.7000 48.5000 -1 -11.2300 47.8630 99 -10.7000 48.5000 TC 25 -10.7496 48.4797 1 10 263
1946340S06071 1947 75 SI MM NOT_NAMED 1946-12-11 03:00:00 TS -10.9148 47.8103 main 203 203 P____P___PP___ SH021947 -10.7924 48.0150 -1 -11.2527 47.2110 99 -10.7924 48.0150 TC 25 -10.8215 48.0004 1 11 262
1946340S06071 1947 75 SI MM NOT_NAMED 1946-12-11 06:00:00 TS -10.9967 47.2707 main 234 234 O____P___OO___ jtwc_sh SH021947 -10.9000 47.5000 -1 -11.2869 46.5829 99 -10.9000 47.5000 TC 25 -10.9000 47.5000 1 11 261
1946340S06071 1947 75 SI MM NOT_NAMED 1946-12-11 09:00:00 TS -11.0830 46.7144 main 277 277 P____P___PP___ SH021947 -10.9999 46.9575 -1 -11.3351 45.9790 99 -10.9999 46.9575 TC 25 -10.9969 46.9635 1 11 261
1946340S06071 1947 75 SI MM NOT_NAMED 1946-12-11 12:00:00 TS -11.1750 46.1519 reunion main 318 318 O____O___OP___ jtwc_sh SH021947 -11.1000 46.4000 -1 -11.4000 45.4000 99 9.90000 -11.1000 46.4000 TC 25 -11.1000 46.4076 1 11 260
1946340S06071 1947 75 SI MM NOT_NAMED 1946-12-11 15:00:00 TS -11.2716 45.5946 main 366 366 P____P___PP___ SH021947 -11.1999 45.8425 -1 -11.4833 44.8457 99 -11.1999 45.8425 TC 25 -11.2031 45.8478 1 11 260
1946340S06071 1947 75 SI MM NOT_NAMED 1946-12-11 18:00:00 TS -11.3709 45.0534 main 398 398 O____P___OO___ jtwc_sh SH021947 -11.3000 45.3000 -1 -11.5835 44.3134 99 -11.3000 45.3000 TC 25 -11.3000 45.3000 1 11 259
1946340S06071 1947 75 SI MM NOT_NAMED 1946-12-11 21:00:00 TS -11.4747 44.5402 main 428 373 P____P___PP___ SH021947 -11.4074 44.7925 -1 -11.6981 43.7999 99 -11.4074 44.7925 TC 25 -11.3861 44.7760 1 11 258
1946340S06071 1947 75 SI MM NOT_NAMED 1946-12-12 00:00:00 TS -11.5913 43.9866 main 373 306 O____P___OP___ jtwc_sh SH021947 -11.5000 44.3000 -1 -11.8247 43.3018 99 -11.5000 44.3000 TC 25 -11.4629 44.2726 1 11 258
1946340S06071 1947 75 SI MM NOT_NAMED 1946-12-12 03:00:00 TS -11.7150 43.4040 main 306 251 P____P___PP___ SH021947 -11.5602 43.8025 -1 -11.9607 42.8160 99 -11.5602 43.8025 TC 25 -11.5333 43.7829 1 12 257
1946340S06071 1947 75 SI MM NOT_NAMED 1946-12-12 06:00:00 TS -11.8518 42.8196 main 239 143 O____P___OO___ jtwc_sh SH021947 -11.6000 43.3000 -1 -12.1036 42.3392 99 -11.6000 43.3000 TC 25 -11.6000 43.3000 1 16 250
1946340S06071 1947 75 SI MM NOT_NAMED 1946-12-12 09:00:00 NR -12.2509 41.8682 main 145 89 _____P________ SH021947 -1 -12.2509 41.8682 99 TC 1 15 248
1946340S06071 1947 75 SI MM NOT_NAMED 1946-12-12 12:00:00 NR -12.4000 41.4000 reunion main 89 _____O________ -1 -12.4000 41.4000 99 9.90000 1 10 252

IBTrACS Databaseについて

本データベースは、米国NOAAが公開する1842年以降の世界の熱帯低気圧のベストトラックデータアーカイブInternational Best Track Archive for Climate Stewardship (IBTrACS)を、ウェブで閲覧しやすい形式に変換したものです。

最終更新日:2021-11-26